sensor_id;sensor_type;location;lat;lon;timestamp;temperature;humidity
66096;SHT31;53861;53.422;14.530;2023-04-08T00:01:02;5.90;91.65
66096;SHT31;53861;53.422;14.530;2023-04-08T00:03:38;5.90;91.34
66096;SHT31;53861;53.422;14.530;2023-04-08T00:06:07;5.84;91.15
66096;SHT31;53861;53.422;14.530;2023-04-08T00:08:36;5.87;90.41
66096;SHT31;53861;53.422;14.530;2023-04-08T00:11:03;5.81;91.16
66096;SHT31;53861;53.422;14.530;2023-04-08T00:13:32;5.71;90.62
66096;SHT31;53861;53.422;14.530;2023-04-08T00:16:06;5.73;91.12
66096;SHT31;53861;53.422;14.530;2023-04-08T00:18:34;5.74;91.10
66096;SHT31;53861;53.422;14.530;2023-04-08T00:21:06;5.74;91.04
66096;SHT31;53861;53.422;14.530;2023-04-08T00:23:36;5.78;91.54
66096;SHT31;53861;53.422;14.530;2023-04-08T00:26:03;5.80;90.65
66096;SHT31;53861;53.422;14.530;2023-04-08T00:28:32;5.88;90.53
66096;SHT31;53861;53.422;14.530;2023-04-08T00:31:22;5.87;90.72
66096;SHT31;53861;53.422;14.530;2023-04-08T00:34:03;5.91;90.78
66096;SHT31;53861;53.422;14.530;2023-04-08T00:36:33;5.93;90.85
66096;SHT31;53861;53.422;14.530;2023-04-08T00:39:03;5.91;91.37
66096;SHT31;53861;53.422;14.530;2023-04-08T00:41:37;5.87;90.86
66096;SHT31;53861;53.422;14.530;2023-04-08T00:44:06;5.93;91.18
66096;SHT31;53861;53.422;14.530;2023-04-08T00:46:38;5.83;90.77
66096;SHT31;53861;53.422;14.530;2023-04-08T00:49:06;5.81;91.30
66096;SHT31;53861;53.422;14.530;2023-04-08T00:51:39;5.83;91.13
66096;SHT31;53861;53.422;14.530;2023-04-08T00:54:12;5.87;91.07
66096;SHT31;53861;53.422;14.530;2023-04-08T00:56:48;5.83;91.17
66096;SHT31;53861;53.422;14.530;2023-04-08T00:59:36;5.83;91.55
66096;SHT31;53861;53.422;14.530;2023-04-08T01:05:08;5.83;91.34
66096;SHT31;53861;53.422;14.530;2023-04-08T01:07:48;5.88;91.27
66096;SHT31;53861;53.422;14.530;2023-04-08T01:10:28;5.87;91.86
66096;SHT31;53861;53.422;14.530;2023-04-08T01:13:03;5.87;91.51
66096;SHT31;53861;53.422;14.530;2023-04-08T01:15:36;5.73;91.70
66096;SHT31;53861;53.422;14.530;2023-04-08T01:18:11;5.74;91.82
66096;SHT31;53861;53.422;14.530;2023-04-08T01:20:59;5.83;91.66
66096;SHT31;53861;53.422;14.530;2023-04-08T01:23:45;5.86;92.00
66096;SHT31;53861;53.422;14.530;2023-04-08T01:26:28;5.87;91.19
66096;SHT31;53861;53.422;14.530;2023-04-08T01:29:02;5.86;91.31
66096;SHT31;53861;53.422;14.530;2023-04-08T01:31:31;5.88;91.54
66096;SHT31;53861;53.422;14.530;2023-04-08T01:33:59;5.77;91.18
66096;SHT31;53861;53.422;14.530;2023-04-08T01:36:30;5.69;92.02
66096;SHT31;53861;53.422;14.530;2023-04-08T01:39:07;5.80;91.75
66096;SHT31;53861;53.422;14.530;2023-04-08T01:41:46;5.83;91.96
66096;SHT31;53861;53.422;14.530;2023-04-08T01:44:17;5.86;91.61
66096;SHT31;53861;53.422;14.530;2023-04-08T01:46:50;5.74;91.71
66096;SHT31;53861;53.422;14.530;2023-04-08T01:49:21;5.83;91.64
66096;SHT31;53861;53.422;14.530;2023-04-08T01:51:52;5.73;91.71
66096;SHT31;53861;53.422;14.530;2023-04-08T01:54:23;5.69;91.53
66096;SHT31;53861;53.422;14.530;2023-04-08T01:56:58;5.69;92.09
66096;SHT31;53861;53.422;14.530;2023-04-08T01:59:42;5.70;92.11
66096;SHT31;53861;53.422;14.530;2023-04-08T02:02:32;5.90;91.33
66096;SHT31;53861;53.422;14.530;2023-04-08T02:05:36;5.88;91.53
66096;SHT31;53861;53.422;14.530;2023-04-08T02:08:03;5.81;91.47
66096;SHT31;53861;53.422;14.530;2023-04-08T02:10:32;5.75;91.71
66096;SHT31;53861;53.422;14.530;2023-04-08T02:13:01;5.84;91.30
66096;SHT31;53861;53.422;14.530;2023-04-08T02:15:33;5.83;91.78
66096;SHT31;53861;53.422;14.530;2023-04-08T02:18:08;5.78;91.67
66096;SHT31;53861;53.422;14.530;2023-04-08T02:20:38;5.75;91.51
66096;SHT31;53861;53.422;14.530;2023-04-08T02:23:15;5.80;91.71
66096;SHT31;53861;53.422;14.530;2023-04-08T02:25:46;5.84;91.68
66096;SHT31;53861;53.422;14.530;2023-04-08T02:28:21;5.81;91.43
66096;SHT31;53861;53.422;14.530;2023-04-08T02:30:52;5.83;91.41
66096;SHT31;53861;53.422;14.530;2023-04-08T02:33:23;5.90;91.42
66096;SHT31;53861;53.422;14.530;2023-04-08T02:35:51;5.86;91.71
66096;SHT31;53861;53.422;14.530;2023-04-08T02:38:22;5.90;91.70
66096;SHT31;53861;53.422;14.530;2023-04-08T02:41:02;5.81;92.02
66096;SHT31;53861;53.422;14.530;2023-04-08T02:43:48;5.80;92.09
66096;SHT31;53861;53.422;14.530;2023-04-08T02:46:20;5.77;91.94
66096;SHT31;53861;53.422;14.530;2023-04-08T02:48:47;5.84;91.66
66096;SHT31;53861;53.422;14.530;2023-04-08T02:51:18;5.93;91.40
66096;SHT31;53861;53.422;14.530;2023-04-08T02:53:47;5.94;91.22
66096;SHT31;53861;53.422;14.530;2023-04-08T02:56:15;5.81;91.54
66096;SHT31;53861;53.422;14.530;2023-04-08T02:58:42;5.78;91.86
66096;SHT31;53861;53.422;14.530;2023-04-08T03:01:11;5.84;92.28
66096;SHT31;53861;53.422;14.530;2023-04-08T03:03:39;5.75;91.91
66096;SHT31;53861;53.422;14.530;2023-04-08T03:06:11;5.73;91.75
66096;SHT31;53861;53.422;14.530;2023-04-08T03:08:46;5.67;91.86
66096;SHT31;53861;53.422;14.530;2023-04-08T03:11:13;5.78;92.27
66096;SHT31;53861;53.422;14.530;2023-04-08T03:13:46;5.83;91.88
66096;SHT31;53861;53.422;14.530;2023-04-08T03:16:16;5.84;92.02
66096;SHT31;53861;53.422;14.530;2023-04-08T03:18:57;5.84;92.13
66096;SHT31;53861;53.422;14.530;2023-04-08T03:21:32;5.90;91.75
66096;SHT31;53861;53.422;14.530;2023-04-08T03:24:02;5.90;91.98
66096;SHT31;53861;53.422;14.530;2023-04-08T03:26:32;5.90;91.27
66096;SHT31;53861;53.422;14.530;2023-04-08T03:31:45;5.77;91.79
66096;SHT31;53861;53.422;14.530;2023-04-08T03:34:13;5.93;91.76
66096;SHT31;53861;53.422;14.530;2023-04-08T03:36:41;5.88;91.52
66096;SHT31;53861;53.422;14.530;2023-04-08T03:39:08;5.87;91.80
66096;SHT31;53861;53.422;14.530;2023-04-08T03:41:36;5.87;91.73
66096;SHT31;53861;53.422;14.530;2023-04-08T03:44:06;5.83;91.78
66096;SHT31;53861;53.422;14.530;2023-04-08T03:46:34;5.80;91.93
66096;SHT31;53861;53.422;14.530;2023-04-08T03:49:20;5.81;92.38
66096;SHT31;53861;53.422;14.530;2023-04-08T03:51:55;5.86;92.20
66096;SHT31;53861;53.422;14.530;2023-04-08T03:54:33;5.84;92.26
66096;SHT31;53861;53.422;14.530;2023-04-08T03:57:06;5.90;92.03
66096;SHT31;53861;53.422;14.530;2023-04-08T03:59:43;5.80;91.32
66096;SHT31;53861;53.422;14.530;2023-04-08T04:02:10;5.83;91.87
66096;SHT31;53861;53.422;14.530;2023-04-08T04:04:41;5.75;92.07
66096;SHT31;53861;53.422;14.530;2023-04-08T04:07:09;5.78;91.92
66096;SHT31;53861;53.422;14.530;2023-04-08T04:09:36;5.71;92.17
66096;SHT31;53861;53.422;14.530;2023-04-08T04:12:08;5.77;91.91
66096;SHT31;53861;53.422;14.530;2023-04-08T04:14:38;5.77;92.19
66096;SHT31;53861;53.422;14.530;2023-04-08T04:17:07;5.74;92.35
66096;SHT31;53861;53.422;14.530;2023-04-08T04:19:36;5.86;92.07
66096;SHT31;53861;53.422;14.530;2023-04-08T04:22:08;5.80;91.95
66096;SHT31;53861;53.422;14.530;2023-04-08T04:24:37;5.86;92.11
66096;SHT31;53861;53.422;14.530;2023-04-08T04:27:07;5.83;91.56
66096;SHT31;53861;53.422;14.530;2023-04-08T04:29:36;5.94;91.99
66096;SHT31;53861;53.422;14.530;2023-04-08T04:32:10;5.88;91.87
66096;SHT31;53861;53.422;14.530;2023-04-08T04:34:37;5.97;91.78
66096;SHT31;53861;53.422;14.530;2023-04-08T04:37:09;5.95;91.90
66096;SHT31;53861;53.422;14.530;2023-04-08T04:39:42;5.90;91.47
66096;SHT31;53861;53.422;14.530;2023-04-08T04:42:11;5.98;92.08
66096;SHT31;53861;53.422;14.530;2023-04-08T04:44:40;5.93;91.84
66096;SHT31;53861;53.422;14.530;2023-04-08T04:47:09;5.97;92.32
66096;SHT31;53861;53.422;14.530;2023-04-08T04:49:37;5.95;91.88
66096;SHT31;53861;53.422;14.530;2023-04-08T04:52:11;5.90;91.52
66096;SHT31;53861;53.422;14.530;2023-04-08T04:54:47;5.91;91.86
66096;SHT31;53861;53.422;14.530;2023-04-08T04:57:26;5.98;91.94
66096;SHT31;53861;53.422;14.530;2023-04-08T04:59:54;6.00;91.69
66096;SHT31;53861;53.422;14.530;2023-04-08T05:02:24;5.95;91.92
66096;SHT31;53861;53.422;14.530;2023-04-08T05:04:53;5.97;91.82
66096;SHT31;53861;53.422;14.530;2023-04-08T05:07:25;5.98;91.88
66096;SHT31;53861;53.422;14.530;2023-04-08T05:09:53;6.00;91.85
66096;SHT31;53861;53.422;14.530;2023-04-08T05:12:25;6.14;91.86
66096;SHT31;53861;53.422;14.530;2023-04-08T05:14:53;6.20;91.22
66096;SHT31;53861;53.422;14.530;2023-04-08T05:17:22;6.15;91.32
66096;SHT31;53861;53.422;14.530;2023-04-08T05:19:52;6.14;91.60
66096;SHT31;53861;53.422;14.530;2023-04-08T05:22:24;6.12;91.54
66096;SHT31;53861;53.422;14.530;2023-04-08T05:24:52;6.18;90.94
66096;SHT31;53861;53.422;14.530;2023-04-08T05:27:22;6.21;90.79
66096;SHT31;53861;53.422;14.530;2023-04-08T05:29:52;6.18;91.06
66096;SHT31;53861;53.422;14.530;2023-04-08T05:32:20;6.17;90.47
66096;SHT31;53861;53.422;14.530;2023-04-08T05:34:50;6.20;91.18
66096;SHT31;53861;53.422;14.530;2023-04-08T05:37:17;6.26;91.14
66096;SHT31;53861;53.422;14.530;2023-04-08T05:39:46;6.25;91.07
66096;SHT31;53861;53.422;14.530;2023-04-08T05:42:16;6.26;91.38
66096;SHT31;53861;53.422;14.530;2023-04-08T05:44:44;6.21;90.79
66096;SHT31;53861;53.422;14.530;2023-04-08T05:47:14;6.29;91.27
66096;SHT31;53861;53.422;14.530;2023-04-08T05:49:47;6.42;90.60
66096;SHT31;53861;53.422;14.530;2023-04-08T05:52:14;6.48;90.43
66096;SHT31;53861;53.422;14.530;2023-04-08T05:54:44;6.55;91.03
66096;SHT31;53861;53.422;14.530;2023-04-08T05:57:13;6.57;90.81
66096;SHT31;53861;53.422;14.530;2023-04-08T05:59:43;6.59;91.32
66096;SHT31;53861;53.422;14.530;2023-04-08T06:02:13;6.71;90.19
66096;SHT31;53861;53.422;14.530;2023-04-08T06:04:44;6.68;90.55
66096;SHT31;53861;53.422;14.530;2023-04-08T06:07:16;6.68;90.50
66096;SHT31;53861;53.422;14.530;2023-04-08T06:09:46;6.63;90.82
66096;SHT31;53861;53.422;14.530;2023-04-08T06:12:17;6.80;90.91
66096;SHT31;53861;53.422;14.530;2023-04-08T06:14:58;6.77;90.26
66096;SHT31;53861;53.422;14.530;2023-04-08T06:17:31;6.96;89.54
66096;SHT31;53861;53.422;14.530;2023-04-08T06:20:12;6.86;90.02
66096;SHT31;53861;53.422;14.530;2023-04-08T06:22:42;6.86;90.29
66096;SHT31;53861;53.422;14.530;2023-04-08T06:25:11;6.94;90.14
66096;SHT31;53861;53.422;14.530;2023-04-08T06:27:43;6.97;89.85
66096;SHT31;53861;53.422;14.530;2023-04-08T06:30:13;6.99;89.42
66096;SHT31;53861;53.422;14.530;2023-04-08T06:32:41;7.13;89.54
66096;SHT31;53861;53.422;14.530;2023-04-08T06:35:08;7.24;89.48
66096;SHT31;53861;53.422;14.530;2023-04-08T06:37:53;7.27;88.71
66096;SHT31;53861;53.422;14.530;2023-04-08T06:40:22;7.31;89.07
66096;SHT31;53861;53.422;14.530;2023-04-08T06:43:02;7.30;89.19
66096;SHT31;53861;53.422;14.530;2023-04-08T06:45:33;7.51;88.02
66096;SHT31;53861;53.422;14.530;2023-04-08T06:48:03;7.30;88.79
66096;SHT31;53861;53.422;14.530;2023-04-08T06:50:34;7.34;88.52
66096;SHT31;53861;53.422;14.530;2023-04-08T06:53:07;7.31;89.57
66096;SHT31;53861;53.422;14.530;2023-04-08T06:55:47;7.52;89.34
66096;SHT31;53861;53.422;14.530;2023-04-08T06:58:18;7.57;88.51
66096;SHT31;53861;53.422;14.530;2023-04-08T07:01:02;7.59;88.63
66096;SHT31;53861;53.422;14.530;2023-04-08T07:03:32;7.62;87.50
66096;SHT31;53861;53.422;14.530;2023-04-08T07:06:02;7.64;88.68
66096;SHT31;53861;53.422;14.530;2023-04-08T07:08:32;7.57;88.63
66096;SHT31;53861;53.422;14.530;2023-04-08T07:11:02;7.57;89.36
66096;SHT31;53861;53.422;14.530;2023-04-08T07:13:41;7.44;89.67
66096;SHT31;53861;53.422;14.530;2023-04-08T07:16:13;7.44;89.02
66096;SHT31;53861;53.422;14.530;2023-04-08T07:18:42;7.57;89.13
66096;SHT31;53861;53.422;14.530;2023-04-08T07:21:17;7.79;89.34
66096;SHT31;53861;53.422;14.530;2023-04-08T07:23:55;7.74;88.56
66096;SHT31;53861;53.422;14.530;2023-04-08T07:26:22;7.74;88.87
66096;SHT31;53861;53.422;14.530;2023-04-08T07:28:51;7.82;88.87
66096;SHT31;53861;53.422;14.530;2023-04-08T07:31:18;7.89;89.27
66096;SHT31;53861;53.422;14.530;2023-04-08T07:33:48;7.88;88.65
66096;SHT31;53861;53.422;14.530;2023-04-08T07:36:17;7.90;88.09
66096;SHT31;53861;53.422;14.530;2023-04-08T07:38:46;7.95;88.37
66096;SHT31;53861;53.422;14.530;2023-04-08T07:41:13;8.00;87.40
66096;SHT31;53861;53.422;14.530;2023-04-08T07:43:40;8.37;87.88
66096;SHT31;53861;53.422;14.530;2023-04-08T07:46:10;8.30;87.37
66096;SHT31;53861;53.422;14.530;2023-04-08T07:48:37;8.43;86.34
66096;SHT31;53861;53.422;14.530;2023-04-08T07:51:06;8.57;85.72
66096;SHT31;53861;53.422;14.530;2023-04-08T07:53:33;8.41;86.29
66096;SHT31;53861;53.422;14.530;2023-04-08T07:56:01;8.30;87.28
66096;SHT31;53861;53.422;14.530;2023-04-08T07:58:32;8.20;86.63
66096;SHT31;53861;53.422;14.530;2023-04-08T08:01:01;8.30;86.23
66096;SHT31;53861;53.422;14.530;2023-04-08T08:03:31;8.39;85.51
66096;SHT31;53861;53.422;14.530;2023-04-08T08:05:58;8.07;86.99
66096;SHT31;53861;53.422;14.530;2023-04-08T08:08:26;8.17;86.24
66096;SHT31;53861;53.422;14.530;2023-04-08T08:10:54;8.20;87.01
66096;SHT31;53861;53.422;14.530;2023-04-08T08:13:27;8.32;87.17
66096;SHT31;53861;53.422;14.530;2023-04-08T08:16:00;8.46;85.44
66096;SHT31;53861;53.422;14.530;2023-04-08T08:18:36;8.44;87.17
66096;SHT31;53861;53.422;14.530;2023-04-08T08:21:07;8.65;87.53
66096;SHT31;53861;53.422;14.530;2023-04-08T08:23:37;8.77;85.14
66096;SHT31;53861;53.422;14.530;2023-04-08T08:26:07;8.64;86.50
66096;SHT31;53861;53.422;14.530;2023-04-08T08:28:41;8.61;85.94
66096;SHT31;53861;53.422;14.530;2023-04-08T08:31:16;8.71;86.23
66096;SHT31;53861;53.422;14.530;2023-04-08T08:33:47;8.78;85.60
66096;SHT31;53861;53.422;14.530;2023-04-08T08:36:17;9.00;83.86
66096;SHT31;53861;53.422;14.530;2023-04-08T08:38:45;9.07;83.56
66096;SHT31;53861;53.422;14.530;2023-04-08T08:41:13;9.07;85.74
66096;SHT31;53861;53.422;14.530;2023-04-08T08:43:47;9.22;85.55
66096;SHT31;53861;53.422;14.530;2023-04-08T08:46:18;9.33;83.70
66096;SHT31;53861;53.422;14.530;2023-04-08T08:48:46;9.47;85.16
66096;SHT31;53861;53.422;14.530;2023-04-08T08:51:14;9.63;83.76
66096;SHT31;53861;53.422;14.530;2023-04-08T08:53:41;9.05;84.45
66096;SHT31;53861;53.422;14.530;2023-04-08T08:56:11;9.21;83.87
66096;SHT31;53861;53.422;14.530;2023-04-08T08:58:41;9.04;84.65
66096;SHT31;53861;53.422;14.530;2023-04-08T09:01:32;9.14;85.54
66096;SHT31;53861;53.422;14.530;2023-04-08T09:04:12;9.38;84.81
66096;SHT31;53861;53.422;14.530;2023-04-08T09:06:48;9.60;83.97
66096;SHT31;53861;53.422;14.530;2023-04-08T09:09:17;9.33;83.55
66096;SHT31;53861;53.422;14.530;2023-04-08T09:11:46;9.26;83.77
66096;SHT31;53861;53.422;14.530;2023-04-08T09:14:21;9.05;85.81
66096;SHT31;53861;53.422;14.530;2023-04-08T09:16:52;9.05;86.01
66096;SHT31;53861;53.422;14.530;2023-04-08T09:19:37;9.23;85.02
66096;SHT31;53861;53.422;14.530;2023-04-08T09:22:08;9.00;85.51
66096;SHT31;53861;53.422;14.530;2023-04-08T09:24:37;9.15;85.52
66096;SHT31;53861;53.422;14.530;2023-04-08T09:27:07;9.04;86.13
66096;SHT31;53861;53.422;14.530;2023-04-08T09:29:38;8.98;86.44
66096;SHT31;53861;53.422;14.530;2023-04-08T09:32:12;9.49;84.12
66096;SHT31;53861;53.422;14.530;2023-04-08T09:34:52;9.32;83.40
66096;SHT31;53861;53.422;14.530;2023-04-08T09:37:28;8.70;85.51
66096;SHT31;53861;53.422;14.530;2023-04-08T09:40:01;8.82;85.80
66096;SHT31;53861;53.422;14.530;2023-04-08T09:42:33;8.98;85.23
66096;SHT31;53861;53.422;14.530;2023-04-08T09:45:08;9.16;85.45
66096;SHT31;53861;53.422;14.530;2023-04-08T09:50:31;9.57;84.10
66096;SHT31;53861;53.422;14.530;2023-04-08T09:53:18;9.62;83.73
66096;SHT31;53861;53.422;14.530;2023-04-08T09:55:55;9.52;84.12
66096;SHT31;53861;53.422;14.530;2023-04-08T09:58:32;9.45;84.37
66096;SHT31;53861;53.422;14.530;2023-04-08T10:01:27;9.32;85.29
66096;SHT31;53861;53.422;14.530;2023-04-08T10:03:58;9.40;85.21
66096;SHT31;53861;53.422;14.530;2023-04-08T10:06:32;9.29;85.07
66096;SHT31;53861;53.422;14.530;2023-04-08T10:09:13;9.45;86.04
66096;SHT31;53861;53.422;14.530;2023-04-08T10:11:45;9.69;83.18
66096;SHT31;53861;53.422;14.530;2023-04-08T10:14:15;9.82;82.90
66096;SHT31;53861;53.422;14.530;2023-04-08T10:16:42;9.72;84.08
66096;SHT31;53861;53.422;14.530;2023-04-08T10:19:35;9.60;85.08
66096;SHT31;53861;53.422;14.530;2023-04-08T10:25:31;9.46;84.23
66096;SHT31;53861;53.422;14.530;2023-04-08T10:27:59;9.47;85.72
66096;SHT31;53861;53.422;14.530;2023-04-08T10:30:39;9.39;85.26
66096;SHT31;53861;53.422;14.530;2023-04-08T10:33:10;9.62;84.67
66096;SHT31;53861;53.422;14.530;2023-04-08T10:35:41;9.60;84.05
66096;SHT31;53861;53.422;14.530;2023-04-08T10:38:13;9.75;83.04
66096;SHT31;53861;53.422;14.530;2023-04-08T10:40:42;9.72;83.76
66096;SHT31;53861;53.422;14.530;2023-04-08T10:43:11;9.66;84.34
66096;SHT31;53861;53.422;14.530;2023-04-08T10:45:38;9.82;84.53
66096;SHT31;53861;53.422;14.530;2023-04-08T10:48:13;10.00;83.95
66096;SHT31;53861;53.422;14.530;2023-04-08T10:50:43;10.22;83.43
66096;SHT31;53861;53.422;14.530;2023-04-08T10:53:10;10.35;81.86
66096;SHT31;53861;53.422;14.530;2023-04-08T10:55:39;10.22;83.41
66096;SHT31;53861;53.422;14.530;2023-04-08T10:58:09;10.17;83.38
66096;SHT31;53861;53.422;14.530;2023-04-08T11:00:38;10.34;83.41
66096;SHT31;53861;53.422;14.530;2023-04-08T11:03:07;10.34;81.45
66096;SHT31;53861;53.422;14.530;2023-04-08T11:05:38;10.48;81.35
66096;SHT31;53861;53.422;14.530;2023-04-08T11:08:06;10.61;81.75
66096;SHT31;53861;53.422;14.530;2023-04-08T11:10:36;10.55;81.21
66096;SHT31;53861;53.422;14.530;2023-04-08T11:13:07;10.72;81.12
66096;SHT31;53861;53.422;14.530;2023-04-08T11:15:36;10.79;80.58
66096;SHT31;53861;53.422;14.530;2023-04-08T11:18:04;10.47;81.21
66096;SHT31;53861;53.422;14.530;2023-04-08T11:20:32;10.75;82.29
66096;SHT31;53861;53.422;14.530;2023-04-08T11:23:02;10.92;81.62
66096;SHT31;53861;53.422;14.530;2023-04-08T11:25:29;11.20;82.33
66096;SHT31;53861;53.422;14.530;2023-04-08T11:27:57;11.29;81.16
66096;SHT31;53861;53.422;14.530;2023-04-08T11:30:28;11.22;78.52
66096;SHT31;53861;53.422;14.530;2023-04-08T11:32:56;11.36;79.93
66096;SHT31;53861;53.422;14.530;2023-04-08T11:35:27;11.61;81.39
66096;SHT31;53861;53.422;14.530;2023-04-08T11:37:58;11.87;80.83
66096;SHT31;53861;53.422;14.530;2023-04-08T11:40:26;12.11;77.47
66096;SHT31;53861;53.422;14.530;2023-04-08T11:42:53;12.33;77.33
66096;SHT31;53861;53.422;14.530;2023-04-08T11:45:23;13.04;75.47
66096;SHT31;53861;53.422;14.530;2023-04-08T11:47:52;13.64;76.07
66096;SHT31;53861;53.422;14.530;2023-04-08T11:50:22;14.46;72.17
66096;SHT31;53861;53.422;14.530;2023-04-08T11:52:53;14.79;71.97
66096;SHT31;53861;53.422;14.530;2023-04-08T11:55:22;15.04;70.78
66096;SHT31;53861;53.422;14.530;2023-04-08T11:57:50;15.48;71.45
66096;SHT31;53861;53.422;14.530;2023-04-08T12:00:18;16.38;65.10
66096;SHT31;53861;53.422;14.530;2023-04-08T12:02:47;17.04;65.23
66096;SHT31;53861;53.422;14.530;2023-04-08T12:05:18;17.04;66.59
66096;SHT31;53861;53.422;14.530;2023-04-08T12:07:46;15.82;66.72
66096;SHT31;53861;53.422;14.530;2023-04-08T12:10:13;15.25;69.16
66096;SHT31;53861;53.422;14.530;2023-04-08T12:12:44;16.51;68.43
66096;SHT31;53861;53.422;14.530;2023-04-08T12:15:12;16.65;68.54
66096;SHT31;53861;53.422;14.530;2023-04-08T12:17:39;16.46;65.57
66096;SHT31;53861;53.422;14.530;2023-04-08T12:20:12;16.58;64.12
66096;SHT31;53861;53.422;14.530;2023-04-08T12:22:43;17.53;64.61
66096;SHT31;53861;53.422;14.530;2023-04-08T12:25:11;18.15;65.01
66096;SHT31;53861;53.422;14.530;2023-04-08T12:27:45;18.68;64.40
66096;SHT31;53861;53.422;14.530;2023-04-08T12:30:13;18.92;60.71
66096;SHT31;53861;53.422;14.530;2023-04-08T12:32:40;18.44;60.47
66096;SHT31;53861;53.422;14.530;2023-04-08T12:35:11;18.31;63.82
66096;SHT31;53861;53.422;14.530;2023-04-08T12:37:43;18.54;63.05
66096;SHT31;53861;53.422;14.530;2023-04-08T12:40:12;18.79;62.84
66096;SHT31;53861;53.422;14.530;2023-04-08T12:42:40;19.20;63.20
66096;SHT31;53861;53.422;14.530;2023-04-08T12:45:11;18.65;61.46
66096;SHT31;53861;53.422;14.530;2023-04-08T12:47:39;17.94;61.81
66096;SHT31;53861;53.422;14.530;2023-04-08T12:50:08;18.86;58.81
66096;SHT31;53861;53.422;14.530;2023-04-08T12:52:38;18.55;61.65
66096;SHT31;53861;53.422;14.530;2023-04-08T12:55:09;18.71;60.96
66096;SHT31;53861;53.422;14.530;2023-04-08T12:57:37;19.57;56.81
66096;SHT31;53861;53.422;14.530;2023-04-08T13:00:08;19.26;59.48
66096;SHT31;53861;53.422;14.530;2023-04-08T13:02:36;18.92;56.25
66096;SHT31;53861;53.422;14.530;2023-04-08T13:05:04;18.63;60.91
66096;SHT31;53861;53.422;14.530;2023-04-08T13:07:34;18.69;59.86
66096;SHT31;53861;53.422;14.530;2023-04-08T13:10:02;18.44;62.85
66096;SHT31;53861;53.422;14.530;2023-04-08T13:12:33;18.83;60.88
66096;SHT31;53861;53.422;14.530;2023-04-08T13:15:00;18.25;59.20
66096;SHT31;53861;53.422;14.530;2023-04-08T13:17:28;17.60;60.93
66096;SHT31;53861;53.422;14.530;2023-04-08T13:19:56;17.54;65.42
66096;SHT31;53861;53.422;14.530;2023-04-08T13:22:23;17.46;64.20
66096;SHT31;53861;53.422;14.530;2023-04-08T13:24:51;17.80;63.92
66096;SHT31;53861;53.422;14.530;2023-04-08T13:27:23;17.01;62.26
66096;SHT31;53861;53.422;14.530;2023-04-08T13:29:51;17.19;62.73
66096;SHT31;53861;53.422;14.530;2023-04-08T13:32:19;17.83;65.19
66096;SHT31;53861;53.422;14.530;2023-04-08T13:34:46;17.32;62.94
66096;SHT31;53861;53.422;14.530;2023-04-08T13:37:14;16.81;63.20
66096;SHT31;53861;53.422;14.530;2023-04-08T13:39:41;15.75;66.08
66096;SHT31;53861;53.422;14.530;2023-04-08T13:42:09;15.96;66.56
66096;SHT31;53861;53.422;14.530;2023-04-08T13:44:36;16.36;66.05
66096;SHT31;53861;53.422;14.530;2023-04-08T13:47:05;16.54;67.21
66096;SHT31;53861;53.422;14.530;2023-04-08T13:49:33;16.65;64.80
66096;SHT31;53861;53.422;14.530;2023-04-08T13:52:01;17.14;67.00
66096;SHT31;53861;53.422;14.530;2023-04-08T13:54:28;16.82;65.28
66096;SHT31;53861;53.422;14.530;2023-04-08T13:56:56;16.77;63.03
66096;SHT31;53861;53.422;14.530;2023-04-08T13:59:24;16.88;63.40
66096;SHT31;53861;53.422;14.530;2023-04-08T14:01:54;16.44;65.65
66096;SHT31;53861;53.422;14.530;2023-04-08T14:04:23;16.37;67.86
66096;SHT31;53861;53.422;14.530;2023-04-08T14:06:50;16.34;65.76
66096;SHT31;53861;53.422;14.530;2023-04-08T14:09:18;16.38;65.37
66096;SHT31;53861;53.422;14.530;2023-04-08T14:11:46;15.59;65.18
66096;SHT31;53861;53.422;14.530;2023-04-08T14:14:21;15.38;67.01
66096;SHT31;53861;53.422;14.530;2023-04-08T14:16:49;15.34;66.79
66096;SHT31;53861;53.422;14.530;2023-04-08T14:19:16;15.58;68.18
66096;SHT31;53861;53.422;14.530;2023-04-08T14:21:45;15.66;66.73
66096;SHT31;53861;53.422;14.530;2023-04-08T14:24:12;16.00;63.33
66096;SHT31;53861;53.422;14.530;2023-04-08T14:26:40;16.07;62.48
66096;SHT31;53861;53.422;14.530;2023-04-08T14:29:08;15.78;64.68
66096;SHT31;53861;53.422;14.530;2023-04-08T14:31:35;15.65;65.88
66096;SHT31;53861;53.422;14.530;2023-04-08T14:34:03;15.39;65.12
66096;SHT31;53861;53.422;14.530;2023-04-08T14:36:33;15.00;66.46
66096;SHT31;53861;53.422;14.530;2023-04-08T14:39:02;14.92;67.84
66096;SHT31;53861;53.422;14.530;2023-04-08T14:41:30;14.91;69.15
66096;SHT31;53861;53.422;14.530;2023-04-08T14:43:57;14.49;66.78
66096;SHT31;53861;53.422;14.530;2023-04-08T14:46:25;14.53;67.30
66096;SHT31;53861;53.422;14.530;2023-04-08T14:48:53;14.30;68.53
66096;SHT31;53861;53.422;14.530;2023-04-08T14:51:20;13.98;69.61
66096;SHT31;53861;53.422;14.530;2023-04-08T14:53:48;14.09;68.59
66096;SHT31;53861;53.422;14.530;2023-04-08T14:56:18;14.22;67.86
66096;SHT31;53861;53.422;14.530;2023-04-08T14:58:45;14.33;67.83
66096;SHT31;53861;53.422;14.530;2023-04-08T15:01:13;14.16;68.45
66096;SHT31;53861;53.422;14.530;2023-04-08T15:03:40;14.06;71.42
66096;SHT31;53861;53.422;14.530;2023-04-08T15:06:08;14.13;70.35
66096;SHT31;53861;53.422;14.530;2023-04-08T15:08:36;14.10;69.70
66096;SHT31;53861;53.422;14.530;2023-04-08T15:11:03;14.10;68.61
66096;SHT31;53861;53.422;14.530;2023-04-08T15:13:32;13.98;69.16
66096;SHT31;53861;53.422;14.530;2023-04-08T15:16:01;13.65;69.98
66096;SHT31;53861;53.422;14.530;2023-04-08T15:18:28;13.64;69.94
66096;SHT31;53861;53.422;14.530;2023-04-08T15:20:58;13.64;70.91
66096;SHT31;53861;53.422;14.530;2023-04-08T15:23:26;13.68;70.98
66096;SHT31;53861;53.422;14.530;2023-04-08T15:25:55;13.47;71.11
66096;SHT31;53861;53.422;14.530;2023-04-08T15:28:23;13.54;70.95
66096;SHT31;53861;53.422;14.530;2023-04-08T15:30:55;13.34;71.66
66096;SHT31;53861;53.422;14.530;2023-04-08T15:33:23;13.31;72.22
66096;SHT31;53861;53.422;14.530;2023-04-08T15:35:50;13.51;70.92
66096;SHT31;53861;53.422;14.530;2023-04-08T15:38:18;13.58;71.61
66096;SHT31;53861;53.422;14.530;2023-04-08T15:40:48;13.57;72.20
66096;SHT31;53861;53.422;14.530;2023-04-08T15:43:18;13.65;71.23
66096;SHT31;53861;53.422;14.530;2023-04-08T15:45:45;13.47;70.46
66096;SHT31;53861;53.422;14.530;2023-04-08T15:48:22;13.41;72.01
66096;SHT31;53861;53.422;14.530;2023-04-08T15:50:52;13.21;71.44
66096;SHT31;53861;53.422;14.530;2023-04-08T15:53:19;13.24;71.39
66096;SHT31;53861;53.422;14.530;2023-04-08T15:55:51;13.21;72.32
66096;SHT31;53861;53.422;14.530;2023-04-08T15:58:21;13.26;71.16
66096;SHT31;53861;53.422;14.530;2023-04-08T16:00:48;13.02;73.19